Time,TemperatureF,DewpointF,PressureIn,WindDirection,WindDirectionDegrees,WindSpeedMPH,WindSpeedGustMPH,Humidity,HourlyPrecipIn,Conditions,Clouds,dailyrainin,SolarRadiationWatts/m^2,SoftwareType,DateUTC
2013-06-10 00:22:00,75.0,41.0,-100.00,North,354,11.0,15.0,30,0.00,,,-99.99,0.000000,,2013-06-10 07:22:00,
2013-06-10 01:22:00,73.0,35.0,-100.00,North,1,7.0,15.0,25,0.00,,,0.00,0.000000,,2013-06-10 08:22:00,
2013-06-10 01:32:00,73.0,35.0,-100.00,North,1,7.0,15.0,25,0.00,,,0.00,0.000000,,2013-06-10 08:32:00,
2013-06-10 01:42:00,73.0,35.0,-100.00,North,1,7.0,15.0,25,0.00,,,0.00,0.000000,,2013-06-10 08:42:00,
2013-06-10 01:52:00,73.0,35.0,-100.00,North,1,7.0,15.0,25,0.00,,,0.00,0.000000,,2013-06-10 08:52:00,
2013-06-10 02:22:00,72.0,30.0,-100.00,SSE,156,6.0,12.0,21,0.00,,,0.00,0.000000,,2013-06-10 09:22:00,
2013-06-10 02:32:00,72.0,30.0,-100.00,SSE,156,6.0,12.0,21,0.00,,,0.00,0.000000,,2013-06-10 09:32:00,
2013-06-10 02:42:00,72.0,30.0,-100.00,SSE,156,6.0,12.0,21,0.00,,,0.00,0.000000,,2013-06-10 09:42:00,
2013-06-10 02:53:00,72.0,30.0,-100.00,SSE,156,6.0,12.0,21,0.00,,,0.00,0.000000,,2013-06-10 09:53:00,
2013-06-10 03:22:00,70.0,33.0,-100.00,WSW,242,0.0,11.0,25,0.00,,,0.00,0.000000,,2013-06-10 10:22:00,
2013-06-10 03:33:00,70.0,33.0,-100.00,WSW,242,0.0,11.0,25,0.00,,,0.00,0.000000,,2013-06-10 10:33:00,
2013-06-10 03:42:00,70.0,33.0,-100.00,WSW,242,0.0,11.0,25,0.00,,,0.00,0.000000,,2013-06-10 10:42:00,
2013-06-10 03:52:00,70.0,33.0,-100.00,WSW,242,0.0,11.0,25,0.00,,,0.00,0.000000,,2013-06-10 10:52:00,
2013-06-10 07:22:00,64.0,39.0,-100.00,NW,316,1.0,8.0,40,-99.99,,,0.00,20.000000,,2013-06-10 14:22:00,
2013-06-10 07:32:00,64.0,39.0,-100.00,NW,316,1.0,8.0,40,-99.99,,,0.00,20.000000,,2013-06-10 14:32:00,
2013-06-10 07:42:00,64.0,39.0,-100.00,NW,316,1.0,8.0,40,-99.99,,,0.00,20.000000,,2013-06-10 14:42:00,
2013-06-10 07:52:00,64.0,39.0,-100.00,NW,316,1.0,8.0,40,-99.99,,,0.00,20.000000,,2013-06-10 14:52:00,
2013-06-10 08:43:00,68.0,42.0,-100.00,SE,141,5.0,7.0,39,0.00,,,0.00,255.000000,,2013-06-10 15:43:00,
2013-06-10 08:53:00,68.0,42.0,-100.00,SE,141,5.0,7.0,39,0.00,,,0.00,255.000000,,2013-06-10 15:53:00,
2013-06-10 09:23:00,77.0,43.0,-100.00,WSW,238,2.0,7.0,30,0.00,,,0.00,533.000000,,2013-06-10 16:23:00,
2013-06-10 09:33:00,77.0,43.0,-100.00,WSW,238,2.0,7.0,30,0.00,,,0.00,533.000000,,2013-06-10 16:33:00,
2013-06-10 09:42:00,77.0,43.0,-100.00,WSW,238,2.0,7.0,30,0.00,,,0.00,533.000000,,2013-06-10 16:42:00,
2013-06-10 09:52:00,77.0,43.0,-100.00,WSW,238,2.0,7.0,30,0.00,,,0.00,533.000000,,2013-06-10 16:52:00,
2013-06-10 09:57:00,73.0,41.0,-100.00,SSE,156,22.0,26.0,31,0.00,,,0.00,748.000000,,2013-06-10 16:57:00,
2013-06-10 10:26:00,73.0,41.0,-100.00,SSE,156,22.0,26.0,31,0.00,,,0.00,748.000000,,2013-06-10 17:26:00,
2013-06-10 10:38:00,73.0,41.0,-100.00,SSE,156,22.0,26.0,31,0.00,,,0.00,748.000000,,2013-06-10 17:38:00,
2013-06-10 10:48:00,73.0,41.0,-100.00,SSE,156,22.0,26.0,31,0.00,,,0.00,748.000000,,2013-06-10 17:48:00,
2013-06-10 11:24:00,78.0,40.0,-100.00,SSE,159,19.0,26.0,26,0.00,,,0.00,922.000000,,2013-06-10 18:24:00,
2013-06-10 11:34:00,78.0,40.0,-100.00,SSE,159,19.0,26.0,26,0.00,,,0.00,922.000000,,2013-06-10 18:34:00,
2013-06-10 11:48:00,78.0,40.0,-100.00,SSE,159,19.0,26.0,26,0.00,,,0.00,922.000000,,2013-06-10 18:48:00,
2013-06-10 11:55:00,78.0,40.0,-100.00,SSE,159,19.0,26.0,26,0.00,,,0.00,922.000000,,2013-06-10 18:55:00,
2013-06-10 12:22:00,81.0,29.0,-100.00,South,174,17.0,25.0,15,0.00,,,0.00,1051.000000,,2013-06-10 19:22:00,
2013-06-10 12:32:00,81.0,29.0,-100.00,South,174,17.0,25.0,15,0.00,,,0.00,1051.000000,,2013-06-10 19:32:00,
2013-06-10 12:42:00,81.0,29.0,-100.00,South,174,17.0,25.0,15,0.00,,,0.00,1051.000000,,2013-06-10 19:42:00,
2013-06-10 12:52:00,81.0,29.0,-100.00,South,174,17.0,25.0,15,0.00,,,0.00,1051.000000,,2013-06-10 19:52:00,
2013-06-10 13:22:00,80.0,33.0,-100.00,SSW,204,16.0,32.0,18,0.00,,,0.00,1105.000000,,2013-06-10 20:22:00,
2013-06-10 13:32:00,80.0,33.0,-100.00,SSW,204,16.0,32.0,18,0.00,,,0.00,1105.000000,,2013-06-10 20:32:00,
2013-06-10 13:43:00,80.0,33.0,-100.00,SSW,204,16.0,32.0,18,0.00,,,0.00,1105.000000,,2013-06-10 20:43:00,
2013-06-10 13:52:00,80.0,33.0,-100.00,SSW,204,16.0,32.0,18,0.00,,,0.00,1105.000000,,2013-06-10 20:52:00,
2013-06-10 14:22:00,80.0,43.0,-100.00,WNW,299,20.0,35.0,27,0.00,,,0.00,1098.000000,,2013-06-10 21:22:00,
2013-06-10 14:33:00,80.0,43.0,-100.00,WNW,299,20.0,35.0,27,0.00,,,0.00,1098.000000,,2013-06-10 21:33:00,
2013-06-10 14:43:00,80.0,43.0,-100.00,WNW,299,20.0,35.0,27,0.00,,,0.00,1098.000000,,2013-06-10 21:43:00,
2013-06-10 14:53:00,80.0,43.0,-100.00,WNW,299,20.0,35.0,27,0.00,,,0.00,1098.000000,,2013-06-10 21:53:00,
2013-06-10 15:22:00,81.0,36.0,-100.00,WNW,300,22.0,31.0,20,0.00,,,0.00,1044.000000,,2013-06-10 22:22:00,
2013-06-10 15:33:00,81.0,36.0,-100.00,WNW,300,22.0,31.0,20,0.00,,,0.00,1044.000000,,2013-06-10 22:33:00,
2013-06-10 15:42:00,81.0,36.0,-100.00,WNW,300,22.0,31.0,20,0.00,,,0.00,1044.000000,,2013-06-10 22:42:00,
2013-06-10 15:52:00,81.0,36.0,-100.00,WNW,300,22.0,31.0,20,0.00,,,0.00,1044.000000,,2013-06-10 22:52:00,
2013-06-10 16:22:00,83.0,36.0,-100.00,NNW,327,24.0,41.0,19,0.00,,,0.00,905.000000,,2013-06-10 23:22:00,
2013-06-10 16:32:00,83.0,36.0,-100.00,NNW,327,24.0,41.0,19,0.00,,,0.00,905.000000,,2013-06-10 23:32:00,
2013-06-10 16:42:00,83.0,36.0,-100.00,NNW,327,24.0,41.0,19,0.00,,,0.00,905.000000,,2013-06-10 23:42:00,
2013-06-10 16:52:00,83.0,36.0,-100.00,NNW,327,24.0,41.0,19,0.00,,,0.00,905.000000,,2013-06-10 23:52:00,
2013-06-10 17:22:00,81.0,41.0,-100.00,NNW,331,23.0,40.0,24,0.00,,,0.00,737.000000,,2013-06-11 00:22:00,
2013-06-10 17:32:00,81.0,41.0,-100.00,NNW,331,23.0,40.0,24,0.00,,,0.00,737.000000,,2013-06-11 00:32:00,
2013-06-10 17:42:00,81.0,41.0,-100.00,NNW,331,23.0,40.0,24,0.00,,,0.00,737.000000,,2013-06-11 00:42:00,
2013-06-10 17:52:00,81.0,41.0,-100.00,NNW,331,23.0,40.0,24,0.00,,,0.00,737.000000,,2013-06-11 00:52:00,
2013-06-10 18:22:00,78.0,45.0,-100.00,NNW,327,27.0,38.0,31,0.00,,,0.00,512.000000,,2013-06-11 01:22:00,
2013-06-10 18:32:00,78.0,45.0,-100.00,NNW,327,27.0,38.0,31,0.00,,,0.00,512.000000,,2013-06-11 01:32:00,
2013-06-10 18:42:00,78.0,45.0,-100.00,NNW,327,27.0,38.0,31,0.00,,,0.00,512.000000,,2013-06-11 01:42:00,
2013-06-10 18:52:00,78.0,45.0,-100.00,NNW,327,27.0,38.0,31,0.00,,,0.00,512.000000,,2013-06-11 01:52:00,
2013-06-10 19:22:00,75.0,42.0,-100.00,NNW,336,25.0,42.0,31,0.00,,,0.00,296.000000,,2013-06-11 02:22:00,
2013-06-10 19:32:00,75.0,42.0,-100.00,NNW,336,25.0,42.0,31,0.00,,,0.00,296.000000,,2013-06-11 02:32:00,
2013-06-10 19:42:00,75.0,42.0,-100.00,NNW,336,25.0,42.0,31,0.00,,,0.00,296.000000,,2013-06-11 02:42:00,
2013-06-10 19:52:00,75.0,42.0,-100.00,NNW,336,25.0,42.0,31,0.00,,,0.00,296.000000,,2013-06-11 02:52:00,
2013-06-10 20:22:00,74.0,45.0,-100.00,North,352,14.0,37.0,36,0.00,,,0.00,68.000000,,2013-06-11 03:22:00,
2013-06-10 20:32:00,74.0,45.0,-100.00,North,352,14.0,37.0,36,0.00,,,0.00,68.000000,,2013-06-11 03:32:00,
2013-06-10 20:43:00,74.0,45.0,-100.00,North,352,14.0,37.0,36,0.00,,,0.00,68.000000,,2013-06-11 03:43:00,
2013-06-10 20:53:00,74.0,45.0,-100.00,North,352,14.0,37.0,36,0.00,,,0.00,68.000000,,2013-06-11 03:53:00,
2013-06-10 21:23:00,71.0,43.0,-100.00,North,351,8.0,29.0,37,0.00,,,0.00,2.000000,,2013-06-11 04:23:00,
2013-06-10 21:33:00,71.0,43.0,-100.00,North,351,8.0,29.0,37,0.00,,,0.00,2.000000,,2013-06-11 04:33:00,
2013-06-10 21:42:00,71.0,43.0,-100.00,North,351,8.0,29.0,37,0.00,,,0.00,2.000000,,2013-06-11 04:42:00,
2013-06-10 21:52:00,71.0,43.0,-100.00,North,351,8.0,29.0,37,0.00,,,0.00,2.000000,,2013-06-11 04:52:00,
2013-06-10 22:22:00,69.0,43.0,-100.00,SSE,161,14.0,18.0,39,0.00,,,0.00,0.000000,,2013-06-11 05:22:00,
2013-06-10 22:32:00,69.0,43.0,-100.00,SSE,161,14.0,18.0,39,0.00,,,0.00,0.000000,,2013-06-11 05:32:00,
2013-06-10 22:42:00,69.0,43.0,-100.00,SSE,161,14.0,18.0,39,0.00,,,0.00,0.000000,,2013-06-11 05:42:00,
2013-06-10 22:52:00,69.0,43.0,-100.00,SSE,161,14.0,18.0,39,0.00,,,0.00,0.000000,,2013-06-11 05:52:00,
2013-06-10 23:22:00,67.0,43.0,-100.00,NW,304,0.0,17.0,41,0.00,,,0.00,0.000000,,2013-06-11 06:22:00,
2013-06-10 23:32:00,67.0,43.0,-100.00,NW,304,0.0,17.0,41,0.00,,,0.00,0.000000,,2013-06-11 06:32:00,
2013-06-10 23:42:00,67.0,43.0,-100.00,NW,304,0.0,17.0,41,0.00,,,0.00,0.000000,,2013-06-11 06:42:00,
2013-06-10 23:52:00,67.0,43.0,-100.00,NW,304,0.0,17.0,41,0.00,,,0.00,0.000000,,2013-06-11 06:52:00,